Glen Ogle, United Kingdom
Current Conditions -  °F | °C
As of 8:20 AM on Friday 21 Nov 2014 (Local Time) from EGPF Reporting Station
Haze Haze  
Wind Chill: 35°   Ceiling: Unl
Heat Index: 39°   Visibility: 2.5mi
Dew Point: 39°   Wind: 6mph
Humidity: 100%   Direction: 80°E
Pressure: 30.12"   Gusts: NA
Location:  56.42°N, 4.32°W
Report Text: EGPF 210820Z AUTO 08005KT 4100 BR NCD 04/04 Q1020
Loading
Personal Weather Stations






























Interactive Weather Map New forecast layout! Learn more

10-Day Weather Forecast

Advertisements
Track Severe Weather on mobile